createdAt,value
2022-08-14T00:02:12.179Z,98597.41
2022-08-14T00:04:58.570Z,98576.00
2022-08-14T00:07:46.451Z,98586.19
2022-08-14T00:10:52.614Z,98601.59
2022-08-14T00:13:40.045Z,98590.66
2022-08-14T00:16:41.199Z,98579.53
2022-08-14T00:19:31.975Z,98563.47
2022-08-14T00:22:44.547Z,98592.03
2022-08-14T00:25:30.573Z,98559.63
2022-08-14T00:28:29.238Z,98591.38
2022-08-14T00:31:20.266Z,98546.13
2022-08-14T00:34:36.706Z,98582.81
2022-08-14T00:37:25.674Z,98557.25
2022-08-14T00:40:27.359Z,98588.00
2022-08-14T00:43:20.342Z,98564.69
2022-08-14T00:46:32.858Z,98555.41
2022-08-14T00:49:16.483Z,98588.19
2022-08-14T00:52:07.508Z,98572.03
2022-08-14T00:54:57.918Z,98580.69
2022-08-14T00:57:45.117Z,98572.28
2022-08-14T01:00:37.155Z,98564.78
2022-08-14T01:03:30.837Z,98551.94
2022-08-14T01:06:18.681Z,98541.72
2022-08-14T01:09:05.105Z,98547.06
2022-08-14T01:11:57.157Z,98555.88
2022-08-14T01:14:55.141Z,98559.38
2022-08-14T01:18:03.149Z,98552.53
2022-08-14T01:21:03.655Z,98541.34
2022-08-14T01:23:53.871Z,98570.44
2022-08-14T01:26:40.590Z,98549.09
2022-08-14T01:29:59.310Z,98564.66
2022-08-14T01:32:51.467Z,98534.03
2022-08-14T01:36:03.564Z,98508.38
2022-08-14T01:38:48.801Z,98534.03
2022-08-14T01:41:36.569Z,98532.50
2022-08-14T01:44:32.159Z,98547.00
2022-08-14T01:47:22.188Z,98525.72
2022-08-14T01:50:10.185Z,98542.78
2022-08-14T01:52:58.877Z,98518.97
2022-08-14T01:55:48.086Z,98513.84
2022-08-14T01:58:35.465Z,98498.78
2022-08-14T02:01:58.096Z,98547.72
2022-08-14T02:04:56.851Z,98507.78
2022-08-14T02:07:55.645Z,98515.72
2022-08-14T02:10:46.081Z,98521.72
2022-08-14T02:13:33.951Z,98506.22
2022-08-14T02:16:26.364Z,98540.47
2022-08-14T02:19:16.573Z,98503.59
2022-08-14T02:22:03.641Z,98525.81
2022-08-14T02:24:51.197Z,98505.19
2022-08-14T02:28:22.026Z,98493.09
2022-08-14T02:30:45.992Z,98515.22
2022-08-14T02:33:33.635Z,98473.22
2022-08-14T02:37:04.485Z,98476.00
2022-08-14T02:39:43.453Z,98488.94
2022-08-14T02:42:37.129Z,98485.56
2022-08-14T02:45:33.612Z,98459.97
2022-08-14T02:49:01.942Z,98456.69
2022-08-14T02:51:43.185Z,98495.88
2022-08-14T02:54:30.879Z,98460.22
2022-08-14T02:57:40.214Z,98466.25
2022-08-14T03:00:24.519Z,98463.72
2022-08-14T03:03:11.502Z,98476.66
2022-08-14T03:05:57.858Z,98475.88
2022-08-14T03:08:46.097Z,98474.91
2022-08-14T03:11:34.656Z,98476.63
2022-08-14T03:14:23.827Z,98450.50
2022-08-14T03:17:11.456Z,98471.03
2022-08-14T03:20:00.060Z,98461.75
2022-08-14T03:22:46.867Z,98442.88
2022-08-14T03:25:38.123Z,98436.97
2022-08-14T03:28:29.730Z,98441.94
2022-08-14T03:31:25.915Z,98464.16
2022-08-14T03:34:25.049Z,98399.09
2022-08-14T03:37:37.719Z,98436.75
2022-08-14T03:40:28.164Z,98430.03
2022-08-14T03:43:14.418Z,98422.19
2022-08-14T03:46:04.411Z,98425.53
2022-08-14T03:49:12.741Z,98433.47
2022-08-14T03:52:04.762Z,98427.59
2022-08-14T03:55:10.603Z,98434.56
2022-08-14T03:58:00.613Z,98456.84
2022-08-14T04:00:47.753Z,98427.78
2022-08-14T04:03:37.278Z,98432.06
2022-08-14T04:06:28.435Z,98456.94
2022-08-14T04:09:18.385Z,98430.53
2022-08-14T04:12:08.356Z,98456.19
2022-08-14T04:14:59.655Z,98411.72
2022-08-14T04:17:46.368Z,98434.00
2022-08-14T04:20:32.934Z,98441.72
2022-08-14T04:23:29.930Z,98420.31
2022-08-14T04:26:42.504Z,98422.06
2022-08-14T04:29:28.427Z,98406.53
2022-08-14T04:33:01.290Z,98407.34
2022-08-14T04:35:26.798Z,98411.63
2022-08-14T04:38:51.579Z,98427.75
2022-08-14T04:41:58.889Z,98449.97
2022-08-14T04:44:48.920Z,98407.03
2022-08-14T04:47:56.468Z,98402.38
2022-08-14T04:50:53.935Z,98415.72
2022-08-14T04:53:44.714Z,98446.03
2022-08-14T04:56:34.114Z,98407.88
2022-08-14T04:59:22.342Z,98427.06
2022-08-14T05:02:08.626Z,98413.19
2022-08-14T05:04:57.188Z,98447.25
2022-08-14T05:07:54.431Z,98428.25
2022-08-14T05:10:53.281Z,98367.94
2022-08-14T05:14:06.591Z,98430.94
2022-08-14T05:16:48.060Z,98431.06
2022-08-14T05:19:36.463Z,98414.44
2022-08-14T05:22:31.613Z,98408.91
2022-08-14T05:25:19.992Z,98430.03
2022-08-14T05:28:19.178Z,98439.16
2022-08-14T05:31:07.211Z,98440.38
2022-08-14T05:33:56.388Z,98434.66
2022-08-14T05:36:43.963Z,98418.94
2022-08-14T05:39:39.568Z,98417.38
2022-08-14T05:42:31.773Z,98430.06
2022-08-14T05:45:20.575Z,98401.22
2022-08-14T05:48:07.528Z,98400.75
2022-08-14T05:50:56.806Z,98423.97
2022-08-14T05:53:43.548Z,98378.59
2022-08-14T05:56:46.854Z,98409.72
2022-08-14T05:59:38.578Z,98382.66
2022-08-14T06:02:26.308Z,98399.97
2022-08-14T06:05:12.691Z,98419.25
2022-08-14T06:07:59.998Z,98398.81
2022-08-14T06:10:46.749Z,98427.16
2022-08-14T06:13:44.464Z,98419.16
2022-08-14T06:16:32.192Z,98398.50
2022-08-14T06:19:19.522Z,98386.56
2022-08-14T06:22:06.070Z,98389.34
2022-08-14T06:24:55.171Z,98390.03
2022-08-14T06:27:49.051Z,98408.44
2022-08-14T06:30:46.019Z,98389.28
2022-08-14T06:35:10.796Z,98402.38
2022-08-14T06:36:40.264Z,98365.63
2022-08-14T06:39:36.249Z,98366.19
2022-08-14T06:42:32.393Z,98328.31
2022-08-14T06:45:19.939Z,98377.28
2022-08-14T06:48:17.697Z,98368.09
2022-08-14T06:51:04.091Z,98378.72
2022-08-14T06:53:52.081Z,98352.47
2022-08-14T06:56:38.959Z,98359.31
2022-08-14T06:59:30.600Z,98323.69
2022-08-14T07:02:43.676Z,98330.88
2022-08-14T07:05:55.426Z,98353.41
2022-08-14T07:08:45.319Z,98350.47
2022-08-14T07:11:34.390Z,98330.97
2022-08-14T07:14:22.022Z,98315.47
2022-08-14T07:17:08.870Z,98347.69
2022-08-14T07:19:56.031Z,98328.19
2022-08-14T07:22:50.057Z,98305.81
2022-08-14T07:25:44.832Z,98356.28
2022-08-14T07:28:43.177Z,98333.19
2022-08-14T07:31:30.377Z,98334.72
2022-08-14T07:34:36.102Z,98327.00
2022-08-14T07:37:23.177Z,98333.81
2022-08-14T07:40:10.124Z,98342.38
2022-08-14T07:42:58.182Z,98365.47
2022-08-14T07:46:01.546Z,98336.75
2022-08-14T07:48:49.366Z,98340.03
2022-08-14T07:51:39.561Z,98347.31
2022-08-14T07:54:30.047Z,98326.88
2022-08-14T07:57:22.184Z,98347.91
2022-08-14T08:00:31.325Z,98308.22
2022-08-14T08:03:18.765Z,98338.13
2022-08-14T08:06:17.595Z,98341.47
2022-08-14T08:09:04.902Z,98354.16
2022-08-14T08:11:54.218Z,98344.88
2022-08-14T08:14:55.698Z,98339.41
2022-08-14T08:17:53.560Z,98325.22
2022-08-14T08:20:52.241Z,98338.50
2022-08-14T08:23:50.996Z,98307.28
2022-08-14T08:26:37.645Z,98310.19
2022-08-14T08:29:28.661Z,98307.34
2022-08-14T08:32:16.139Z,98311.13
2022-08-14T08:35:02.527Z,98273.03
2022-08-14T08:38:01.195Z,98327.06
2022-08-14T08:40:49.596Z,98319.75
2022-08-14T08:43:36.927Z,98315.72
2022-08-14T08:46:24.935Z,98310.81
2022-08-14T08:49:11.563Z,98286.25
2022-08-14T08:52:04.350Z,98266.84
2022-08-14T08:54:54.712Z,98278.09
2022-08-14T08:57:40.910Z,98329.22
2022-08-14T09:00:33.882Z,98301.50
2022-08-14T09:03:24.297Z,98310.00
2022-08-14T09:07:00.230Z,98277.69
2022-08-14T09:09:33.185Z,98289.56
2022-08-14T09:12:21.561Z,98277.50
2022-08-14T09:15:12.462Z,98283.84
2022-08-14T09:17:59.847Z,98254.66
2022-08-14T09:20:50.327Z,98288.78
2022-08-14T09:24:26.911Z,98267.41
2022-08-14T09:26:49.290Z,98301.81
2022-08-14T09:29:36.544Z,98279.97
2022-08-14T09:33:09.194Z,98306.03
2022-08-14T09:36:11.465Z,98298.66
2022-08-14T09:39:29.639Z,98309.13
2022-08-14T09:42:34.387Z,98314.75
2022-08-14T09:45:52.995Z,98308.34
2022-08-14T09:48:40.379Z,98271.59
2022-08-14T09:51:33.030Z,98272.06
2022-08-14T09:54:43.046Z,98282.31
2022-08-14T09:57:31.480Z,98230.47
2022-08-14T10:00:28.783Z,98260.75
2022-08-14T10:03:33.911Z,98261.94
2022-08-14T10:06:25.119Z,98261.94
2022-08-14T10:09:16.850Z,98240.66
2022-08-14T10:12:06.708Z,98197.22
2022-08-14T10:15:14.778Z,98230.16
2022-08-14T10:18:08.015Z,98231.03
2022-08-14T10:20:58.286Z,98193.16
2022-08-14T10:23:49.819Z,98205.09
2022-08-14T10:26:37.234Z,98200.03
2022-08-14T10:29:38.424Z,98208.63
2022-08-14T10:32:36.072Z,98203.72
2022-08-14T10:35:31.783Z,98164.75
2022-08-14T10:38:35.380Z,98169.81
2022-08-14T10:41:21.647Z,98169.88
2022-08-14T10:44:22.131Z,98182.22
2022-08-14T10:47:41.341Z,98157.81
2022-08-14T10:50:17.290Z,98132.16
2022-08-14T10:53:05.496Z,98141.81
2022-08-14T10:56:03.983Z,98141.81
2022-08-14T10:59:01.147Z,98154.72
2022-08-14T11:01:47.750Z,98136.94
2022-08-14T11:04:35.590Z,98144.06
2022-08-14T11:07:25.096Z,98150.53
2022-08-14T11:10:14.512Z,98164.25
2022-08-14T11:13:01.996Z,98130.03
2022-08-14T11:15:51.630Z,98142.59
2022-08-14T11:18:39.822Z,98153.53
2022-08-14T11:21:30.258Z,98127.44
2022-08-14T11:24:51.018Z,98141.28
2022-08-14T11:27:33.500Z,98130.19
2022-08-14T11:30:49.802Z,98159.53
2022-08-14T11:33:32.667Z,98169.47
2022-08-14T11:36:23.737Z,98158.78
2022-08-14T11:39:34.542Z,98159.31
2022-08-14T11:42:58.589Z,98147.03
2022-08-14T11:45:36.960Z,98150.59
2022-08-14T11:49:03.993Z,98154.97
2022-08-14T11:51:36.078Z,98127.41
2022-08-14T11:54:37.592Z,98124.59
2022-08-14T11:57:24.994Z,98153.81
2022-08-14T12:00:19.475Z,98114.28
2022-08-14T12:03:06.463Z,98130.16
2022-08-14T12:06:05.398Z,98129.22
2022-08-14T12:08:53.737Z,98115.09
2022-08-14T12:11:47.686Z,98089.16
2022-08-14T12:14:49.339Z,98093.81
2022-08-14T12:17:49.733Z,98088.25
2022-08-14T12:20:45.866Z,98062.91
2022-08-14T12:23:39.784Z,98089.00
2022-08-14T12:26:39.727Z,98073.06
2022-08-14T12:29:27.735Z,98073.94
2022-08-14T12:32:14.623Z,98073.41
2022-08-14T12:35:01.190Z,98078.47
2022-08-14T12:37:49.739Z,98075.22
2022-08-14T12:40:51.911Z,98084.69
2022-08-14T12:44:01.713Z,98077.78
2022-08-14T12:46:49.031Z,98047.69
2022-08-14T12:49:35.891Z,98079.44
2022-08-14T12:52:43.104Z,98051.16
2022-08-14T12:56:18.561Z,98061.78
2022-08-14T12:58:52.753Z,98058.97
2022-08-14T13:02:00.230Z,98037.88
2022-08-14T13:04:50.702Z,98048.75
2022-08-14T13:07:45.743Z,98020.59
2022-08-14T13:10:51.348Z,98025.41
2022-08-14T13:13:44.620Z,98000.00
2022-08-14T13:16:33.699Z,97995.00
2022-08-14T13:19:26.846Z,98021.00
2022-08-14T13:22:28.852Z,97993.50
2022-08-14T13:25:22.841Z,98013.72
2022-08-14T13:28:12.205Z,98020.59
2022-08-14T13:31:16.934Z,98013.41
2022-08-14T13:34:03.459Z,97995.16
2022-08-14T13:36:58.932Z,98005.88
2022-08-14T13:39:56.606Z,98004.50
2022-08-14T13:42:45.460Z,98001.94
2022-08-14T13:46:00.816Z,97978.81
2022-08-14T13:48:41.761Z,97989.94
2022-08-14T13:51:36.994Z,97967.00
2022-08-14T13:54:29.830Z,97986.63
2022-08-14T13:57:18.457Z,97981.47
2022-08-14T14:00:12.893Z,97979.97
2022-08-14T14:03:00.144Z,97977.28
2022-08-14T14:05:53.230Z,97946.44
2022-08-14T14:08:47.866Z,97940.63
2022-08-14T14:11:35.862Z,97950.81
2022-08-14T14:14:45.161Z,97915.81
2022-08-14T14:17:31.482Z,97952.06
2022-08-14T14:20:35.720Z,97931.50
2022-08-14T14:23:23.454Z,97934.03
2022-08-14T14:26:13.910Z,97930.34
2022-08-14T14:29:01.608Z,97922.03
2022-08-14T14:31:49.286Z,97943.47
2022-08-14T14:34:37.708Z,97901.28
2022-08-14T14:37:26.366Z,97911.66
2022-08-14T14:40:50.646Z,97913.47
2022-08-14T14:43:24.986Z,97914.25
2022-08-14T14:46:13.130Z,97923.97
2022-08-14T14:49:01.256Z,97908.09
2022-08-14T14:51:51.049Z,97925.00
2022-08-14T14:54:40.146Z,97909.13
2022-08-14T14:57:35.391Z,97922.69
2022-08-14T15:00:22.414Z,97908.13
2022-08-14T15:03:10.471Z,97898.03
2022-08-14T15:05:57.284Z,97879.31
2022-08-14T15:08:56.875Z,97872.41
2022-08-14T15:11:47.032Z,97895.69
2022-08-14T15:14:55.989Z,97887.38
2022-08-14T15:17:42.403Z,97876.38
2022-08-14T15:20:31.010Z,97885.81
2022-08-14T15:23:18.055Z,97873.28
2022-08-14T15:26:08.803Z,97883.25
2022-08-14T15:29:03.245Z,97869.69
2022-08-14T15:31:51.526Z,97892.78
2022-08-14T15:34:51.100Z,97879.03
2022-08-14T15:37:42.307Z,97894.06
2022-08-14T15:40:29.102Z,97882.00
2022-08-14T15:43:16.743Z,97880.69
2022-08-14T15:46:06.941Z,97897.03
2022-08-14T15:48:53.913Z,97882.81
2022-08-14T15:51:43.575Z,97869.56
2022-08-14T15:54:31.196Z,97899.06
2022-08-14T15:57:21.071Z,97901.34
2022-08-14T16:00:43.786Z,97863.56
2022-08-14T16:03:35.693Z,97891.69
2022-08-14T16:06:28.678Z,97859.56
2022-08-14T16:09:14.992Z,97872.28
2022-08-14T16:12:02.410Z,97868.97
2022-08-14T16:14:49.087Z,97876.63
2022-08-14T16:17:37.866Z,97894.88
2022-08-14T16:20:41.505Z,97858.81
2022-08-14T16:23:36.211Z,97900.00
2022-08-14T16:26:29.829Z,97893.44
2022-08-14T16:29:19.732Z,97874.59
2022-08-14T16:32:32.721Z,97863.09
2022-08-14T16:35:16.374Z,97885.28
2022-08-14T16:38:44.582Z,97860.69
2022-08-14T16:41:17.149Z,97862.25
2022-08-14T16:44:13.718Z,97876.16
2022-08-14T16:47:13.723Z,97858.03
2022-08-14T16:50:04.370Z,97857.03
2022-08-14T16:52:56.004Z,97869.56
2022-08-14T16:56:07.024Z,97863.38
2022-08-14T16:59:08.358Z,97872.75
2022-08-14T17:02:00.724Z,97858.81
2022-08-14T17:04:53.438Z,97866.22
2022-08-14T17:07:44.867Z,97824.94
2022-08-14T17:10:36.684Z,97861.13
2022-08-14T17:13:59.983Z,97872.69
2022-08-14T17:16:37.190Z,97849.50
2022-08-14T17:19:27.092Z,97854.53
2022-08-14T17:22:17.891Z,97857.72
2022-08-14T17:25:04.479Z,97876.44
2022-08-14T17:28:50.026Z,97883.13
2022-08-14T17:31:19.734Z,97843.34
2022-08-14T17:34:07.575Z,97870.69
2022-08-14T17:37:04.997Z,97869.88
2022-08-14T17:40:22.628Z,97875.47
2022-08-14T17:43:13.205Z,97863.22
2022-08-14T17:45:59.622Z,97843.66
2022-08-14T17:49:15.749Z,97869.50
2022-08-14T17:52:17.072Z,97877.94
2022-08-14T17:55:07.016Z,97880.66
2022-08-14T17:57:54.596Z,97834.03
2022-08-14T18:00:43.465Z,97870.44
2022-08-14T18:03:50.454Z,97841.19
2022-08-14T18:06:58.564Z,97849.03
2022-08-14T18:09:57.406Z,97863.56
2022-08-14T18:12:45.463Z,97858.47
2022-08-14T18:15:36.980Z,97859.41
2022-08-14T18:18:24.608Z,97847.44
2022-08-14T18:21:40.370Z,97851.88
2022-08-14T18:24:29.733Z,97872.09
2022-08-14T18:27:28.812Z,97882.91
2022-08-14T18:30:31.941Z,97882.16
2022-08-14T18:33:28.250Z,97864.16
2022-08-14T18:36:56.703Z,97886.50
2022-08-14T18:40:03.211Z,97855.78
2022-08-14T18:43:02.159Z,97858.06
2022-08-14T18:46:01.152Z,97875.91
2022-08-14T18:49:14.332Z,97879.59
2022-08-14T18:52:29.633Z,97903.44
2022-08-14T18:55:18.465Z,97906.22
2022-08-14T18:58:26.527Z,97908.16
2022-08-14T19:01:29.852Z,97872.22
2022-08-14T19:04:36.061Z,97889.31
2022-08-14T19:07:23.038Z,97901.69
2022-08-14T19:10:16.799Z,97874.34
2022-08-14T19:13:11.571Z,97913.03
2022-08-14T19:16:05.176Z,97911.09
2022-08-14T19:19:00.035Z,97904.34
2022-08-14T19:21:57.012Z,97898.16
2022-08-14T19:24:44.193Z,97893.03
2022-08-14T19:27:37.524Z,97911.41
2022-08-14T19:30:25.750Z,97925.56
2022-08-14T19:33:47.607Z,97902.75
2022-08-14T19:37:04.420Z,97885.94
2022-08-14T19:39:56.064Z,97919.25
2022-08-14T19:42:46.652Z,97868.53
2022-08-14T19:45:34.148Z,97910.84
2022-08-14T19:48:20.974Z,97920.47
2022-08-14T19:51:08.090Z,97908.19
2022-08-14T19:54:03.193Z,97919.16
2022-08-14T19:56:50.818Z,97900.03
2022-08-14T19:59:57.611Z,97903.56
2022-08-14T20:02:49.014Z,97919.44
2022-08-14T20:05:45.570Z,97891.75
2022-08-14T20:09:05.761Z,97908.13
2022-08-14T20:12:01.812Z,97928.38
2022-08-14T20:14:51.610Z,97884.56
2022-08-14T20:17:40.460Z,97916.19
2022-08-14T20:20:31.925Z,97898.78
2022-08-14T20:23:20.132Z,97917.06
2022-08-14T20:26:30.691Z,97931.97
2022-08-14T20:29:31.038Z,97918.25
2022-08-14T20:32:32.500Z,97931.25
2022-08-14T20:35:36.186Z,97926.69
2022-08-14T20:38:29.198Z,97899.72
2022-08-14T20:41:20.292Z,97916.81
2022-08-14T20:44:28.444Z,97923.81
2022-08-14T20:47:16.425Z,97911.88
2022-08-14T20:50:23.579Z,97905.28
2022-08-14T20:53:26.250Z,97914.16
2022-08-14T20:56:27.967Z,97902.88
2022-08-14T20:59:20.130Z,97918.75
2022-08-14T21:02:46.301Z,97940.16
2022-08-14T21:05:37.282Z,97857.84
2022-08-14T21:08:26.057Z,97870.94
2022-08-14T21:11:17.840Z,97931.72
2022-08-14T21:14:20.062Z,97945.91
2022-08-14T21:17:14.850Z,97904.34
2022-08-14T21:20:25.897Z,97947.34
2022-08-14T21:23:14.125Z,97928.41
2022-08-14T21:26:01.357Z,97938.06
2022-08-14T21:28:50.081Z,97910.84
2022-08-14T21:31:38.065Z,97930.44
2022-08-14T21:34:27.565Z,97943.94
2022-08-14T21:37:18.147Z,97935.72
2022-08-14T21:40:35.379Z,97957.41
2022-08-14T21:43:21.728Z,97951.13
2022-08-14T21:46:08.439Z,97958.09
2022-08-14T21:48:55.325Z,97905.47
2022-08-14T21:51:57.187Z,97948.69
2022-08-14T21:54:50.068Z,97938.81
2022-08-14T21:57:56.740Z,97967.59
2022-08-14T22:00:51.826Z,97951.81
2022-08-14T22:03:44.849Z,97934.94
2022-08-14T22:06:32.995Z,97969.13
2022-08-14T22:09:24.601Z,97960.25
2022-08-14T22:12:57.582Z,97948.84
2022-08-14T22:15:31.105Z,97974.13
2022-08-14T22:18:20.205Z,97947.53
2022-08-14T22:21:08.066Z,97920.25
2022-08-14T22:24:10.634Z,97974.44
2022-08-14T22:26:59.542Z,97978.41
2022-08-14T22:29:46.407Z,97959.59
2022-08-14T22:32:56.371Z,97968.56
2022-08-14T22:35:45.226Z,97962.81
2022-08-14T22:38:35.895Z,97962.31
2022-08-14T22:41:31.475Z,97959.16
2022-08-14T22:44:28.456Z,97959.91
2022-08-14T22:47:15.657Z,97954.31
2022-08-14T22:50:31.702Z,97963.09
2022-08-14T22:53:10.285Z,97979.03
2022-08-14T22:55:58.678Z,97972.66
2022-08-14T22:58:45.397Z,97954.94
2022-08-14T23:01:55.677Z,97982.38
2022-08-14T23:04:54.379Z,97914.91
2022-08-14T23:08:57.791Z,97968.91
2022-08-14T23:10:47.455Z,97996.19
2022-08-14T23:13:43.448Z,97993.44
2022-08-14T23:16:31.250Z,97978.69
2022-08-14T23:19:22.842Z,97985.63
2022-08-14T23:22:10.706Z,97958.09
2022-08-14T23:25:03.853Z,97958.66
2022-08-14T23:28:03.257Z,97985.47
2022-08-14T23:30:50.182Z,97963.47
2022-08-14T23:33:46.061Z,97990.94
2022-08-14T23:36:52.938Z,97981.22
2022-08-14T23:39:40.352Z,97947.53
2022-08-14T23:42:40.006Z,97994.63
2022-08-14T23:45:35.364Z,97979.25
2022-08-14T23:48:27.944Z,97961.19
2022-08-14T23:51:17.211Z,97994.44
2022-08-14T23:54:48.072Z,97978.16
2022-08-14T23:57:13.494Z,97976.47
